sensor_id;sensor_type;location;lat;lon;timestamp;pressure;altitude;pressure_sealevel;temperature;humidity
69717;BME280;65362;46.144;19.666;2023-01-25T00:09:39;101682.00;;;21.80;50.89
69717;BME280;65362;46.144;19.666;2023-01-25T00:19:41;101674.16;;;21.77;50.68
69717;BME280;65362;46.144;19.666;2023-01-25T00:29:44;101678.38;;;21.81;51.00
69717;BME280;65362;46.144;19.666;2023-01-25T00:39:47;101673.97;;;21.80;50.67
69717;BME280;65362;46.144;19.666;2023-01-25T00:49:50;101664.59;;;21.73;50.70
69717;BME280;65362;46.144;19.666;2023-01-25T00:59:53;101670.00;;;21.85;50.38
69717;BME280;65362;46.144;19.666;2023-01-25T01:09:57;101669.69;;;21.90;50.52
69717;BME280;65362;46.144;19.666;2023-01-25T01:20:00;101681.19;;;21.92;50.78
69717;BME280;65362;46.144;19.666;2023-01-25T01:30:04;101671.13;;;21.95;50.89
69717;BME280;65362;46.144;19.666;2023-01-25T01:40:08;101669.09;;;21.99;50.56
69717;BME280;65362;46.144;19.666;2023-01-25T01:50:22;101664.22;;;21.91;50.42
69717;BME280;65362;46.144;19.666;2023-01-25T02:00:31;101661.44;;;21.93;50.55
69717;BME280;65362;46.144;19.666;2023-01-25T02:10:37;101632.78;;;21.93;50.25
69717;BME280;65362;46.144;19.666;2023-01-25T02:20:42;101650.03;;;22.04;50.07
69717;BME280;65362;46.144;19.666;2023-01-25T02:30:45;101659.69;;;22.06;49.82
69717;BME280;65362;46.144;19.666;2023-01-25T02:50:53;101656.06;;;22.07;49.77
69717;BME280;65362;46.144;19.666;2023-01-25T03:00:57;101655.09;;;22.08;49.97
69717;BME280;65362;46.144;19.666;2023-01-25T03:11:03;101654.09;;;22.09;49.61
69717;BME280;65362;46.144;19.666;2023-01-25T03:21:17;101641.66;;;22.08;49.65
69717;BME280;65362;46.144;19.666;2023-01-25T03:31:20;101625.28;;;21.98;49.77
69717;BME280;65362;46.144;19.666;2023-01-25T03:41:24;101634.34;;;22.10;49.69
69717;BME280;65362;46.144;19.666;2023-01-25T03:51:27;101620.59;;;22.02;49.59
69717;BME280;65362;46.144;19.666;2023-01-25T04:01:30;101636.28;;;22.08;49.41
69717;BME280;65362;46.144;19.666;2023-01-25T04:11:33;101628.34;;;22.07;49.41
69717;BME280;65362;46.144;19.666;2023-01-25T04:21:36;101621.25;;;22.06;49.24
69717;BME280;65362;46.144;19.666;2023-01-25T04:31:39;101627.59;;;22.05;49.51
69717;BME280;65362;46.144;19.666;2023-01-25T04:41:42;101619.31;;;22.08;49.15
69717;BME280;65362;46.144;19.666;2023-01-25T04:51:47;101608.31;;;21.98;49.09
69717;BME280;65362;46.144;19.666;2023-01-25T05:01:50;101632.94;;;22.05;49.00
69717;BME280;65362;46.144;19.666;2023-01-25T05:11:53;101647.91;;;22.09;49.57
69717;BME280;65362;46.144;19.666;2023-01-25T05:22:05;101636.69;;;22.02;48.64
69717;BME280;65362;46.144;19.666;2023-01-25T05:32:21;101638.91;;;21.95;48.60
69717;BME280;65362;46.144;19.666;2023-01-25T05:42:25;101641.78;;;21.92;48.58
69717;BME280;65362;46.144;19.666;2023-01-25T05:52:29;101647.53;;;22.00;48.32
69717;BME280;65362;46.144;19.666;2023-01-25T06:02:32;101654.69;;;22.00;47.83
69717;BME280;65362;46.144;19.666;2023-01-25T06:12:35;101651.25;;;21.98;48.16
69717;BME280;65362;46.144;19.666;2023-01-25T06:22:38;101662.00;;;21.98;47.94
69717;BME280;65362;46.144;19.666;2023-01-25T06:32:41;101654.91;;;21.97;48.42
69717;BME280;65362;46.144;19.666;2023-01-25T06:42:45;101668.31;;;21.97;48.82
69717;BME280;65362;46.144;19.666;2023-01-25T06:52:52;101661.22;;;21.96;48.65
69717;BME280;65362;46.144;19.666;2023-01-25T07:02:55;101662.00;;;21.98;48.36
69717;BME280;65362;46.144;19.666;2023-01-25T07:12:58;101651.47;;;21.95;48.08
69717;BME280;65362;46.144;19.666;2023-01-25T07:23:01;101625.41;;;21.83;47.90
69717;BME280;65362;46.144;19.666;2023-01-25T07:33:04;101652.41;;;21.94;48.01
69717;BME280;65362;46.144;19.666;2023-01-25T07:43:08;101635.31;;;21.82;47.84
69717;BME280;65362;46.144;19.666;2023-01-25T07:53:12;101658.84;;;21.91;47.56
69717;BME280;65362;46.144;19.666;2023-01-25T08:03:15;101656.94;;;21.93;47.47
69717;BME280;65362;46.144;19.666;2023-01-25T08:13:18;101625.75;;;21.78;47.73
69717;BME280;65362;46.144;19.666;2023-01-25T08:23:21;101647.56;;;21.86;47.10
69717;BME280;65362;46.144;19.666;2023-01-25T08:33:24;101653.78;;;21.87;47.30
69717;BME280;65362;46.144;19.666;2023-01-25T08:43:27;101646.59;;;21.87;47.24
69717;BME280;65362;46.144;19.666;2023-01-25T08:53:31;101653.69;;;21.88;46.95
69717;BME280;65362;46.144;19.666;2023-01-25T09:03:35;101640.78;;;21.81;46.86
69717;BME280;65362;46.144;19.666;2023-01-25T09:13:39;101648.50;;;21.85;46.84
69717;BME280;65362;46.144;19.666;2023-01-25T09:23:50;101631.03;;;21.80;46.94
69717;BME280;65362;46.144;19.666;2023-01-25T09:34:09;101628.97;;;21.83;46.45
69717;BME280;65362;46.144;19.666;2023-01-25T09:54:22;101604.19;;;21.80;46.38
69717;BME280;65362;46.144;19.666;2023-01-25T10:04:34;101583.69;;;21.79;46.75
69717;BME280;65362;46.144;19.666;2023-01-25T10:14:39;101573.69;;;21.81;46.23
69717;BME280;65362;46.144;19.666;2023-01-25T10:35:00;101523.00;;;21.76;45.96
69717;BME280;65362;46.144;19.666;2023-01-25T10:45:17;101522.91;;;21.78;46.25
69717;BME280;65362;46.144;19.666;2023-01-25T10:55:20;101498.00;;;21.76;46.16
69717;BME280;65362;46.144;19.666;2023-01-25T11:05:30;101478.34;;;21.75;45.95
69717;BME280;65362;46.144;19.666;2023-01-25T11:15:33;101474.72;;;21.76;46.11
69717;BME280;65362;46.144;19.666;2023-01-25T11:25:36;101461.41;;;21.75;46.19
69717;BME280;65362;46.144;19.666;2023-01-25T11:46:35;101420.38;;;21.73;46.25
69717;BME280;65362;46.144;19.666;2023-01-25T12:07:19;101400.00;;;21.70;45.92
69717;BME280;65362;46.144;19.666;2023-01-25T12:28:13;101392.03;;;21.68;45.55
69717;BME280;65362;46.144;19.666;2023-01-25T12:48:37;101355.34;;;21.56;45.38
69717;BME280;65362;46.144;19.666;2023-01-25T12:58:52;101358.03;;;21.56;45.78
69717;BME280;65362;46.144;19.666;2023-01-25T13:09:06;101364.78;;;21.62;45.42
69717;BME280;65362;46.144;19.666;2023-01-25T13:49:49;101316.19;;;21.54;45.62
69717;BME280;65362;46.144;19.666;2023-01-25T14:00:07;101328.81;;;21.64;45.89
69717;BME280;65362;46.144;19.666;2023-01-25T14:10:18;101310.94;;;21.52;45.79
69717;BME280;65362;46.144;19.666;2023-01-25T14:20:24;101314.66;;;21.62;46.01
69717;BME280;65362;46.144;19.666;2023-01-25T14:30:29;101293.00;;;21.53;45.68
69717;BME280;65362;46.144;19.666;2023-01-25T14:40:33;101310.25;;;21.61;45.50
69717;BME280;65362;46.144;19.666;2023-01-25T14:50:37;101310.25;;;21.61;45.46
69717;BME280;65362;46.144;19.666;2023-01-25T15:00:40;101290.66;;;21.48;45.48
69717;BME280;65362;46.144;19.666;2023-01-25T15:10:56;101299.75;;;21.58;45.99
69717;BME280;65362;46.144;19.666;2023-01-25T15:21:32;101312.09;;;21.61;46.01
69717;BME280;65362;46.144;19.666;2023-01-25T15:31:36;101301.91;;;21.53;46.77
69717;BME280;65362;46.144;19.666;2023-01-25T15:41:39;101309.19;;;21.64;46.61
69717;BME280;65362;46.144;19.666;2023-01-25T15:51:41;101316.16;;;21.66;46.46
69717;BME280;65362;46.144;19.666;2023-01-25T16:01:44;101316.06;;;21.68;46.89
69717;BME280;65362;46.144;19.666;2023-01-25T16:11:50;101315.19;;;21.67;46.65
69717;BME280;65362;46.144;19.666;2023-01-25T16:21:53;101304.47;;;21.67;46.46
69717;BME280;65362;46.144;19.666;2023-01-25T16:31:56;101298.13;;;21.68;46.69
69717;BME280;65362;46.144;19.666;2023-01-25T16:41:59;101289.13;;;21.70;46.86
69717;BME280;65362;46.144;19.666;2023-01-25T16:52:03;101269.06;;;21.62;47.05
69717;BME280;65362;46.144;19.666;2023-01-25T17:02:10;101272.69;;;21.74;46.78
69717;BME280;65362;46.144;19.666;2023-01-25T17:12:13;101264.75;;;21.73;46.38
69717;BME280;65362;46.144;19.666;2023-01-25T17:22:16;101250.38;;;21.74;46.29
69717;BME280;65362;46.144;19.666;2023-01-25T17:32:18;101219.03;;;21.61;46.52
69717;BME280;65362;46.144;19.666;2023-01-25T17:42:22;101225.47;;;21.72;46.38
69717;BME280;65362;46.144;19.666;2023-01-25T17:52:26;101215.69;;;21.71;46.12
69717;BME280;65362;46.144;19.666;2023-01-25T18:02:33;101218.38;;;21.71;46.29
69717;BME280;65362;46.144;19.666;2023-01-25T18:12:36;101204.97;;;21.71;46.23
69717;BME280;65362;46.144;19.666;2023-01-25T18:22:41;101185.13;;;21.60;45.92
69717;BME280;65362;46.144;19.666;2023-01-25T18:32:45;101186.19;;;21.71;46.41
69717;BME280;65362;46.144;19.666;2023-01-25T18:42:50;101179.84;;;21.72;46.14
69717;BME280;65362;46.144;19.666;2023-01-25T18:52:55;101179.97;;;21.70;46.08
69717;BME280;65362;46.144;19.666;2023-01-25T19:02:58;101164.19;;;21.65;45.88
69717;BME280;65362;46.144;19.666;2023-01-25T19:13:02;101159.34;;;21.71;45.87
69717;BME280;65362;46.144;19.666;2023-01-25T19:23:05;101151.31;;;21.71;45.87
69717;BME280;65362;46.144;19.666;2023-01-25T19:33:10;101123.84;;;21.67;45.71
69717;BME280;65362;46.144;19.666;2023-01-25T19:43:13;101129.00;;;21.70;45.88
69717;BME280;65362;46.144;19.666;2023-01-25T19:53:17;101100.16;;;21.61;46.57
69717;BME280;65362;46.144;19.666;2023-01-25T20:03:20;101112.88;;;21.70;46.56
69717;BME280;65362;46.144;19.666;2023-01-25T20:13:23;101099.91;;;21.64;46.70
69717;BME280;65362;46.144;19.666;2023-01-25T20:23:29;101078.56;;;21.62;46.67
69717;BME280;65362;46.144;19.666;2023-01-25T20:33:32;101077.50;;;21.65;46.47
69717;BME280;65362;46.144;19.666;2023-01-25T20:43:35;101070.19;;;21.67;46.82
69717;BME280;65362;46.144;19.666;2023-01-25T20:53:40;101066.75;;;21.65;47.11
69717;BME280;65362;46.144;19.666;2023-01-25T21:03:43;101058.59;;;21.66;47.79
69717;BME280;65362;46.144;19.666;2023-01-25T21:13:46;101070.06;;;21.68;50.12
69717;BME280;65362;46.144;19.666;2023-01-25T21:23:49;101075.31;;;21.70;50.34
69717;BME280;65362;46.144;19.666;2023-01-25T21:33:53;101050.16;;;21.60;49.69
69717;BME280;65362;46.144;19.666;2023-01-25T21:43:58;101063.75;;;21.70;49.20
69717;BME280;65362;46.144;19.666;2023-01-25T21:54:22;101053.13;;;21.68;49.09
69717;BME280;65362;46.144;19.666;2023-01-25T22:04:25;101032.44;;;21.57;50.07
69717;BME280;65362;46.144;19.666;2023-01-25T22:14:28;101047.75;;;21.68;49.55
69717;BME280;65362;46.144;19.666;2023-01-25T22:24:30;101013.66;;;21.57;49.28
69717;BME280;65362;46.144;19.666;2023-01-25T22:34:33;101022.00;;;21.65;49.38
69717;BME280;65362;46.144;19.666;2023-01-25T22:44:37;100978.31;;;21.52;48.81
69717;BME280;65362;46.144;19.666;2023-01-25T22:54:40;100984.56;;;21.64;49.17
69717;BME280;65362;46.144;19.666;2023-01-25T23:04:43;100974.81;;;21.63;48.83
69717;BME280;65362;46.144;19.666;2023-01-25T23:14:46;100970.41;;;21.62;48.76
69717;BME280;65362;46.144;19.666;2023-01-25T23:24:52;100943.81;;;21.59;49.04
69717;BME280;65362;46.144;19.666;2023-01-25T23:34:55;100942.38;;;21.66;49.18
69717;BME280;65362;46.144;19.666;2023-01-25T23:44:58;100936.03;;;21.67;48.62
69717;BME280;65362;46.144;19.666;2023-01-25T23:55:02;100918.63;;;21.73;48.56
